createdAt,value
2022-07-29T00:01:44.342Z,13.91
2022-07-29T00:04:14.283Z,13.88
2022-07-29T00:06:43.502Z,13.83
2022-07-29T00:09:12.729Z,13.79
2022-07-29T00:11:41.665Z,13.77
2022-07-29T00:14:10.513Z,13.73
2022-07-29T00:16:41.164Z,13.68
2022-07-29T00:19:09.975Z,13.66
2022-07-29T00:21:39.994Z,13.63
2022-07-29T00:24:08.891Z,13.58
2022-07-29T00:26:37.727Z,13.55
2022-07-29T00:29:32.970Z,13.50
2022-07-29T00:31:56.877Z,13.48
2022-07-29T00:34:43.072Z,13.43
2022-07-29T00:37:11.828Z,13.40
2022-07-29T00:39:40.749Z,13.37
2022-07-29T00:42:10.704Z,13.35
2022-07-29T00:44:40.106Z,13.32
2022-07-29T00:47:11.073Z,13.30
2022-07-29T00:49:40.750Z,13.26
2022-07-29T00:52:10.603Z,13.22
2022-07-29T00:54:44.703Z,13.19
2022-07-29T00:57:14.634Z,13.15
2022-07-29T00:59:43.931Z,13.10
2022-07-29T01:02:14.094Z,13.06
2022-07-29T01:04:43.214Z,13.03
2022-07-29T01:07:12.233Z,12.99
2022-07-29T01:09:46.623Z,12.94
2022-07-29T01:12:17.115Z,12.90
2022-07-29T01:14:46.512Z,12.84
2022-07-29T01:17:20.030Z,12.83
2022-07-29T01:19:51.749Z,12.82
2022-07-29T01:22:27.249Z,12.79
2022-07-29T01:25:04.735Z,12.74
2022-07-29T01:27:40.630Z,12.70
2022-07-29T01:30:13.251Z,12.69
2022-07-29T01:32:45.275Z,12.65
2022-07-29T01:35:18.797Z,12.62
2022-07-29T01:37:49.253Z,12.60
2022-07-29T01:40:22.229Z,12.59
2022-07-29T01:42:52.619Z,12.55
2022-07-29T01:45:25.593Z,12.52
2022-07-29T01:47:56.662Z,12.49
2022-07-29T01:50:28.954Z,12.45
2022-07-29T01:52:59.033Z,12.43
2022-07-29T01:55:31.396Z,12.42
2022-07-29T01:58:01.224Z,12.41
2022-07-29T02:00:32.803Z,12.39
2022-07-29T02:03:03.872Z,12.38
2022-07-29T02:05:34.841Z,12.35
2022-07-29T02:08:06.339Z,12.33
2022-07-29T02:10:36.561Z,12.32
2022-07-29T02:13:06.649Z,12.31
2022-07-29T02:15:37.751Z,12.30
2022-07-29T02:18:09.354Z,12.27
2022-07-29T02:20:39.996Z,12.25
2022-07-29T02:23:11.121Z,12.25
2022-07-29T02:25:40.155Z,12.23
2022-07-29T02:28:09.598Z,12.20
2022-07-29T02:30:42.601Z,12.19
2022-07-29T02:33:14.319Z,12.18
2022-07-29T02:35:44.063Z,12.16
2022-07-29T02:38:32.372Z,12.15
2022-07-29T02:41:02.544Z,12.15
2022-07-29T02:43:32.759Z,12.15
2022-07-29T02:46:05.943Z,12.16
2022-07-29T02:48:43.970Z,12.17
2022-07-29T02:51:43.795Z,12.17
2022-07-29T02:54:08.790Z,12.15
2022-07-29T02:56:39.199Z,12.14
2022-07-29T02:59:10.392Z,12.14
2022-07-29T03:01:42.411Z,12.13
2022-07-29T03:04:11.944Z,12.13
2022-07-29T03:06:43.079Z,12.11
2022-07-29T03:09:13.774Z,12.10
2022-07-29T03:11:49.480Z,12.07
2022-07-29T03:14:21.555Z,12.07
2022-07-29T03:16:52.857Z,12.05
2022-07-29T03:19:22.538Z,12.04
2022-07-29T03:21:51.461Z,12.05
2022-07-29T03:24:26.843Z,12.05
2022-07-29T03:26:56.768Z,12.06
2022-07-29T03:29:33.484Z,12.06
2022-07-29T03:32:08.302Z,12.06
2022-07-29T03:34:38.872Z,12.05
2022-07-29T03:37:08.738Z,12.04
2022-07-29T03:39:40.806Z,12.04
2022-07-29T03:42:12.066Z,12.03
2022-07-29T03:44:43.027Z,12.03
2022-07-29T03:47:16.074Z,12.05
2022-07-29T03:49:46.609Z,12.04
2022-07-29T03:52:15.818Z,12.06
2022-07-29T03:54:44.770Z,12.09
2022-07-29T03:57:13.970Z,12.13
2022-07-29T03:59:43.788Z,12.15
2022-07-29T04:02:26.214Z,12.17
2022-07-29T04:05:00.272Z,12.22
2022-07-29T04:07:31.063Z,12.26
2022-07-29T04:10:00.008Z,12.29
2022-07-29T04:12:29.574Z,12.32
2022-07-29T04:14:58.402Z,12.37
2022-07-29T04:17:28.731Z,12.43
2022-07-29T04:19:57.747Z,12.48
2022-07-29T04:22:26.835Z,12.52
2022-07-29T04:24:59.096Z,12.56
2022-07-29T04:27:32.253Z,12.60
2022-07-29T04:30:01.058Z,12.62
2022-07-29T04:32:31.358Z,12.67
2022-07-29T04:35:00.777Z,12.72
2022-07-29T04:37:29.562Z,12.77
2022-07-29T04:39:58.271Z,12.83
2022-07-29T04:42:27.890Z,12.89
2022-07-29T04:44:58.244Z,12.97
2022-07-29T04:47:31.659Z,13.04
2022-07-29T04:50:00.479Z,13.15
2022-07-29T04:52:29.285Z,13.23
2022-07-29T04:54:58.158Z,13.35
2022-07-29T04:57:26.846Z,13.44
2022-07-29T04:59:55.536Z,13.57
2022-07-29T05:02:24.715Z,13.71
2022-07-29T05:04:54.967Z,13.82
2022-07-29T05:07:23.667Z,13.91
2022-07-29T05:09:53.657Z,14.06
2022-07-29T05:12:22.628Z,14.18
2022-07-29T05:14:51.317Z,14.32
2022-07-29T05:17:20.268Z,14.42
2022-07-29T05:19:49.055Z,14.56
2022-07-29T05:22:19.173Z,14.65
2022-07-29T05:24:48.344Z,14.78
2022-07-29T05:27:17.126Z,14.86
2022-07-29T05:29:46.048Z,14.98
2022-07-29T05:32:15.034Z,15.07
2022-07-29T05:34:50.127Z,15.16
2022-07-29T05:37:21.164Z,15.27
2022-07-29T05:39:56.749Z,15.39
2022-07-29T05:42:26.595Z,15.48
2022-07-29T05:44:55.463Z,15.59
2022-07-29T05:47:24.524Z,15.71
2022-07-29T05:49:53.551Z,15.81
2022-07-29T05:52:23.750Z,15.93
2022-07-29T05:54:52.858Z,16.05
2022-07-29T05:57:22.857Z,16.15
2022-07-29T05:59:52.126Z,16.26
2022-07-29T06:02:20.947Z,16.39
2022-07-29T06:04:50.489Z,16.49
2022-07-29T06:07:19.385Z,16.60
2022-07-29T06:09:49.643Z,16.70
2022-07-29T06:12:18.704Z,16.80
2022-07-29T06:14:50.870Z,16.91
2022-07-29T06:17:22.655Z,17.01
2022-07-29T06:19:51.388Z,17.11
2022-07-29T06:22:20.746Z,17.22
2022-07-29T06:24:51.264Z,17.33
2022-07-29T06:27:20.102Z,17.43
2022-07-29T06:29:48.884Z,17.55
2022-07-29T06:32:17.999Z,17.65
2022-07-29T06:34:51.932Z,17.74
2022-07-29T06:37:20.842Z,17.86
2022-07-29T06:40:11.211Z,17.95
2022-07-29T06:42:43.710Z,18.06
2022-07-29T06:45:12.521Z,18.17
2022-07-29T06:47:41.459Z,18.27
2022-07-29T06:50:12.807Z,18.35
2022-07-29T06:52:41.844Z,18.46
2022-07-29T06:55:12.457Z,18.55
2022-07-29T06:57:54.067Z,18.65
2022-07-29T07:00:23.097Z,18.75
2022-07-29T07:02:51.826Z,18.85
2022-07-29T07:05:20.754Z,18.94
2022-07-29T07:07:49.747Z,19.05
2022-07-29T07:10:19.966Z,19.15
2022-07-29T07:12:48.674Z,19.23
2022-07-29T07:15:17.537Z,19.33
2022-07-29T07:17:46.261Z,19.45
2022-07-29T07:20:14.908Z,19.55
2022-07-29T07:22:43.834Z,19.64
2022-07-29T07:25:12.933Z,19.73
2022-07-29T07:27:43.403Z,19.84
2022-07-29T07:30:12.697Z,19.92
2022-07-29T07:32:41.416Z,20.01
2022-07-29T07:35:10.791Z,20.09
2022-07-29T07:37:41.450Z,20.17
2022-07-29T07:40:11.286Z,20.25
2022-07-29T07:42:40.782Z,20.33
2022-07-29T07:45:16.178Z,20.41
2022-07-29T07:47:45.761Z,20.48
2022-07-29T07:50:18.649Z,20.56
2022-07-29T07:52:48.880Z,20.64
2022-07-29T07:55:18.252Z,20.72
2022-07-29T07:57:47.042Z,20.78
2022-07-29T08:00:18.239Z,20.82
2022-07-29T08:02:47.123Z,20.88
2022-07-29T08:05:18.157Z,20.95
2022-07-29T08:07:47.754Z,21.03
2022-07-29T08:10:36.846Z,21.09
2022-07-29T08:13:05.771Z,21.18
2022-07-29T08:15:35.919Z,21.26
2022-07-29T08:18:08.621Z,21.33
2022-07-29T08:20:39.277Z,21.42
2022-07-29T08:23:09.596Z,21.51
2022-07-29T08:25:40.088Z,21.59
2022-07-29T08:28:09.635Z,21.69
2022-07-29T08:30:39.705Z,21.77
2022-07-29T08:33:08.388Z,21.86
2022-07-29T08:35:37.609Z,21.92
2022-07-29T08:38:06.352Z,22.02
2022-07-29T08:40:35.034Z,22.09
2022-07-29T08:43:08.324Z,22.14
2022-07-29T08:45:44.328Z,22.20
2022-07-29T08:48:19.767Z,22.25
2022-07-29T08:50:49.587Z,22.32
2022-07-29T08:53:19.641Z,22.40
2022-07-29T08:55:49.576Z,22.48
2022-07-29T08:58:22.882Z,22.56
2022-07-29T09:00:55.254Z,22.62
2022-07-29T09:03:25.584Z,22.70
2022-07-29T09:05:55.408Z,22.76
2022-07-29T09:08:25.092Z,22.82
2022-07-29T09:10:54.611Z,22.86
2022-07-29T09:13:23.838Z,22.92
2022-07-29T09:15:53.883Z,22.97
2022-07-29T09:18:39.563Z,23.02
2022-07-29T09:21:27.135Z,23.06
2022-07-29T09:24:03.652Z,23.11
2022-07-29T09:26:33.408Z,23.14
2022-07-29T09:29:02.129Z,23.16
2022-07-29T09:31:39.425Z,23.19
2022-07-29T09:34:10.295Z,23.22
2022-07-29T09:36:42.391Z,23.24
2022-07-29T09:39:11.817Z,23.26
2022-07-29T09:41:48.008Z,23.28
2022-07-29T09:44:17.855Z,23.32
2022-07-29T09:47:06.858Z,23.34
2022-07-29T09:49:36.905Z,23.38
2022-07-29T09:52:06.989Z,23.41
2022-07-29T09:54:38.912Z,23.42
2022-07-29T09:57:09.927Z,23.42
2022-07-29T09:59:50.201Z,23.42
2022-07-29T10:02:23.652Z,23.41
2022-07-29T10:04:53.088Z,23.40
2022-07-29T10:07:22.114Z,23.41
2022-07-29T10:09:57.897Z,23.41
2022-07-29T10:12:26.854Z,23.41
2022-07-29T10:14:55.814Z,23.42
2022-07-29T10:17:26.054Z,23.44
2022-07-29T10:19:55.187Z,23.47
2022-07-29T10:22:50.800Z,23.49
2022-07-29T10:25:13.129Z,23.51
2022-07-29T10:27:41.827Z,23.54
2022-07-29T10:30:11.280Z,23.55
2022-07-29T10:32:57.755Z,23.60
2022-07-29T10:35:44.429Z,23.63
2022-07-29T10:38:26.692Z,23.66
2022-07-29T10:41:19.343Z,23.70
2022-07-29T10:43:51.249Z,23.74
2022-07-29T10:46:21.014Z,23.77
2022-07-29T10:49:09.739Z,23.80
2022-07-29T10:51:57.793Z,23.82
2022-07-29T10:54:51.145Z,23.86
2022-07-29T10:57:53.824Z,23.91
2022-07-29T11:00:33.129Z,23.95
2022-07-29T11:03:04.689Z,24.00
2022-07-29T11:05:56.872Z,24.01
2022-07-29T11:08:29.232Z,24.01
2022-07-29T11:11:17.340Z,24.02
2022-07-29T11:13:55.812Z,24.01
2022-07-29T11:16:26.651Z,24.00
2022-07-29T11:19:26.357Z,23.98
2022-07-29T11:21:59.260Z,23.98
2022-07-29T11:24:30.263Z,23.97
2022-07-29T11:27:19.657Z,23.99
2022-07-29T11:29:58.543Z,23.99
2022-07-29T11:32:29.409Z,23.99
2022-07-29T11:35:18.486Z,24.00
2022-07-29T11:37:55.353Z,24.00
2022-07-29T11:40:26.855Z,24.01
2022-07-29T11:42:55.566Z,24.02
2022-07-29T11:45:44.460Z,24.02
2022-07-29T11:48:28.774Z,24.05
2022-07-29T11:51:00.847Z,24.05
2022-07-29T11:53:32.546Z,24.08
2022-07-29T11:56:03.646Z,24.11
2022-07-29T11:58:33.736Z,24.13
2022-07-29T12:01:04.948Z,24.16
2022-07-29T12:03:36.961Z,24.19
2022-07-29T12:06:14.800Z,24.22
2022-07-29T12:08:44.949Z,24.26
2022-07-29T12:11:21.415Z,24.28
2022-07-29T12:13:51.591Z,24.32
2022-07-29T12:16:25.584Z,24.35
2022-07-29T12:18:59.829Z,24.39
2022-07-29T12:21:29.311Z,24.43
2022-07-29T12:24:05.413Z,24.47
2022-07-29T12:26:40.481Z,24.49
2022-07-29T12:29:14.084Z,24.52
2022-07-29T12:31:47.503Z,24.54
2022-07-29T12:34:17.764Z,24.57
2022-07-29T12:36:46.713Z,24.59
2022-07-29T12:39:15.487Z,24.62
2022-07-29T12:41:44.443Z,24.64
2022-07-29T12:44:13.357Z,24.67
2022-07-29T12:46:42.434Z,24.67
2022-07-29T12:49:23.251Z,24.69
2022-07-29T12:51:52.396Z,24.70
2022-07-29T12:54:21.781Z,24.71
2022-07-29T12:56:59.941Z,24.73
2022-07-29T12:59:29.200Z,24.76
2022-07-29T13:02:01.035Z,24.77
2022-07-29T13:04:32.882Z,24.76
2022-07-29T13:08:29.522Z,24.74
2022-07-29T13:09:51.703Z,24.70
2022-07-29T13:12:21.863Z,24.67
2022-07-29T13:14:51.404Z,24.62
2022-07-29T13:17:21.751Z,24.58
2022-07-29T13:19:53.037Z,24.55
2022-07-29T13:22:23.958Z,24.53
2022-07-29T13:24:53.904Z,24.51
2022-07-29T13:27:23.747Z,24.48
2022-07-29T13:29:53.486Z,24.48
2022-07-29T13:32:28.376Z,24.47
2022-07-29T13:35:00.041Z,24.48
2022-07-29T13:37:30.743Z,24.49
2022-07-29T13:40:00.335Z,24.50
2022-07-29T13:42:29.416Z,24.51
2022-07-29T13:44:58.235Z,24.52
2022-07-29T13:47:32.247Z,24.52
2022-07-29T13:50:03.708Z,24.53
2022-07-29T13:52:35.516Z,24.53
2022-07-29T13:55:04.708Z,24.52
2022-07-29T13:57:33.824Z,24.52
2022-07-29T14:00:02.740Z,24.51
2022-07-29T14:02:38.660Z,24.52
2022-07-29T14:05:10.800Z,24.53
2022-07-29T14:07:39.995Z,24.53
2022-07-29T14:10:09.183Z,24.57
2022-07-29T14:12:38.055Z,24.63
2022-07-29T14:15:07.456Z,24.77
2022-07-29T14:17:36.420Z,25.03
2022-07-29T14:20:05.659Z,25.31
2022-07-29T14:22:40.200Z,25.62
2022-07-29T14:25:14.611Z,25.96
2022-07-29T14:27:44.613Z,26.38
2022-07-29T14:30:13.950Z,26.84
2022-07-29T14:32:42.673Z,27.32
2022-07-29T14:35:11.566Z,27.77
2022-07-29T14:37:43.379Z,28.23
2022-07-29T14:40:12.595Z,28.67
2022-07-29T14:42:41.436Z,29.11
2022-07-29T14:45:11.243Z,29.51
2022-07-29T14:47:40.924Z,29.94
2022-07-29T14:50:10.161Z,30.39
2022-07-29T14:52:39.116Z,30.91
2022-07-29T14:55:16.685Z,31.44
2022-07-29T14:57:49.601Z,32.03
2022-07-29T15:00:19.113Z,32.52
2022-07-29T15:03:01.390Z,33.01
2022-07-29T15:05:31.423Z,33.48
2022-07-29T15:08:00.871Z,33.93
2022-07-29T15:10:30.959Z,34.35
2022-07-29T15:13:00.159Z,34.75
2022-07-29T15:15:29.131Z,35.14
2022-07-29T15:17:57.809Z,35.51
2022-07-29T15:20:28.121Z,35.72
2022-07-29T15:22:57.040Z,35.74
2022-07-29T15:25:26.416Z,35.70
2022-07-29T15:28:01.701Z,35.54
2022-07-29T15:30:33.977Z,35.20
2022-07-29T15:33:04.711Z,34.87
2022-07-29T15:35:40.625Z,34.57
2022-07-29T15:38:09.856Z,34.29
2022-07-29T15:40:38.944Z,33.97
2022-07-29T15:43:09.090Z,33.66
2022-07-29T15:45:40.529Z,33.36
2022-07-29T15:48:13.233Z,33.04
2022-07-29T15:50:46.928Z,32.70
2022-07-29T15:53:16.110Z,32.40
2022-07-29T15:55:45.417Z,32.13
2022-07-29T15:58:15.471Z,31.92
2022-07-29T16:00:44.352Z,31.80
2022-07-29T16:03:13.354Z,31.78
2022-07-29T16:05:42.136Z,31.89
2022-07-29T16:08:10.892Z,32.14
2022-07-29T16:10:39.805Z,32.51
2022-07-29T16:13:08.767Z,32.96
2022-07-29T16:15:39.067Z,33.45
2022-07-29T16:18:08.967Z,33.96
2022-07-29T16:20:38.424Z,34.40
2022-07-29T16:23:07.767Z,34.81
2022-07-29T16:25:58.504Z,35.11
2022-07-29T16:28:25.534Z,35.29
2022-07-29T16:30:55.812Z,35.30
2022-07-29T16:33:24.603Z,35.19
2022-07-29T16:35:53.441Z,34.99
2022-07-29T16:38:22.329Z,34.73
2022-07-29T16:40:51.115Z,34.44
2022-07-29T16:43:19.929Z,34.10
2022-07-29T16:45:49.023Z,33.72
2022-07-29T16:48:19.771Z,33.35
2022-07-29T16:50:48.503Z,32.97
2022-07-29T16:53:17.377Z,32.60
2022-07-29T16:55:46.213Z,32.25
2022-07-29T16:58:14.900Z,31.86
2022-07-29T17:00:43.933Z,31.44
2022-07-29T17:03:12.828Z,31.15
2022-07-29T17:05:50.642Z,30.83
2022-07-29T17:08:23.089Z,30.50
2022-07-29T17:10:51.829Z,30.20
2022-07-29T17:13:20.762Z,29.90
2022-07-29T17:15:49.823Z,29.63
2022-07-29T17:18:18.657Z,29.33
2022-07-29T17:20:48.873Z,29.07
2022-07-29T17:23:17.771Z,28.79
2022-07-29T17:25:46.521Z,28.51
2022-07-29T17:28:15.241Z,28.25
2022-07-29T17:30:44.142Z,28.00
2022-07-29T17:33:12.839Z,27.76
2022-07-29T17:35:58.949Z,27.57
2022-07-29T17:38:29.185Z,27.32
2022-07-29T17:40:58.001Z,27.10
2022-07-29T17:43:26.819Z,26.91
2022-07-29T17:45:59.122Z,26.72
2022-07-29T17:48:28.342Z,26.50
2022-07-29T17:50:58.123Z,26.32
2022-07-29T17:53:26.796Z,26.11
2022-07-29T17:55:58.291Z,25.93
2022-07-29T17:58:27.510Z,25.76
2022-07-29T18:00:56.380Z,25.60
2022-07-29T18:03:25.455Z,25.44
2022-07-29T18:05:54.625Z,25.28
2022-07-29T18:08:23.418Z,25.13
2022-07-29T18:10:52.643Z,24.96
2022-07-29T18:13:23.047Z,24.80
2022-07-29T18:15:52.181Z,24.64
2022-07-29T18:18:21.197Z,24.47
2022-07-29T18:20:50.296Z,24.32
2022-07-29T18:23:19.074Z,24.15
2022-07-29T18:25:47.958Z,23.99
2022-07-29T18:28:16.830Z,23.82
2022-07-29T18:30:47.612Z,23.67
2022-07-29T18:33:22.034Z,23.52
2022-07-29T18:36:10.835Z,23.37
2022-07-29T18:38:41.199Z,23.20
2022-07-29T18:41:10.172Z,23.06
2022-07-29T18:43:38.907Z,22.92
2022-07-29T18:46:09.042Z,22.78
2022-07-29T18:48:38.315Z,22.65
2022-07-29T18:51:09.214Z,22.53
2022-07-29T18:53:38.577Z,22.40
2022-07-29T18:56:08.022Z,22.26
2022-07-29T18:58:38.301Z,22.14
2022-07-29T19:01:07.405Z,22.03
2022-07-29T19:03:37.695Z,21.92
2022-07-29T19:06:06.729Z,21.78
2022-07-29T19:08:38.468Z,21.66
2022-07-29T19:11:07.303Z,21.55
2022-07-29T19:13:37.118Z,21.44
2022-07-29T19:16:12.010Z,21.32
2022-07-29T19:18:43.170Z,21.21
2022-07-29T19:21:12.171Z,21.09
2022-07-29T19:24:01.671Z,20.99
2022-07-29T19:26:30.207Z,20.86
2022-07-29T19:28:58.918Z,20.76
2022-07-29T19:31:28.176Z,20.65
2022-07-29T19:33:58.537Z,20.56
2022-07-29T19:36:27.366Z,20.45
2022-07-29T19:38:56.090Z,20.35
2022-07-29T19:41:24.971Z,20.26
2022-07-29T19:43:53.723Z,20.18
2022-07-29T19:46:22.752Z,20.08
2022-07-29T19:48:53.009Z,19.99
2022-07-29T19:51:23.673Z,19.90
2022-07-29T19:53:52.469Z,19.81
2022-07-29T19:56:21.418Z,19.72
2022-07-29T19:58:53.026Z,19.61
2022-07-29T20:01:21.990Z,19.49
2022-07-29T20:03:50.710Z,19.38
2022-07-29T20:06:20.041Z,19.29
2022-07-29T20:08:55.382Z,19.20
2022-07-29T20:11:29.725Z,19.08
2022-07-29T20:13:58.714Z,18.98
2022-07-29T20:16:27.474Z,18.87
2022-07-29T20:18:56.220Z,18.77
2022-07-29T20:21:26.778Z,18.68
2022-07-29T20:24:00.384Z,18.60
2022-07-29T20:26:29.719Z,18.48
2022-07-29T20:28:58.633Z,18.36
2022-07-29T20:31:27.720Z,18.25
2022-07-29T20:33:56.631Z,18.14
2022-07-29T20:36:25.371Z,18.01
2022-07-29T20:38:54.349Z,17.88
2022-07-29T20:41:24.730Z,17.75
2022-07-29T20:43:53.438Z,17.63
2022-07-29T20:46:22.164Z,17.52
2022-07-29T20:48:51.171Z,17.43
2022-07-29T20:51:19.938Z,17.33
2022-07-29T20:53:49.179Z,17.24
2022-07-29T20:56:18.079Z,17.14
2022-07-29T20:58:48.158Z,17.05
2022-07-29T21:01:17.202Z,16.95
2022-07-29T21:03:46.167Z,16.85
2022-07-29T21:06:15.961Z,16.75
2022-07-29T21:08:44.636Z,16.67
2022-07-29T21:11:13.741Z,16.56
2022-07-29T21:13:44.924Z,16.46
2022-07-29T21:16:18.641Z,16.38
2022-07-29T21:18:47.950Z,16.30
2022-07-29T21:21:18.299Z,16.21
2022-07-29T21:23:47.301Z,16.12
2022-07-29T21:26:16.089Z,16.03
2022-07-29T21:28:44.183Z,15.93
2022-07-29T21:31:13.982Z,15.85
2022-07-29T21:33:45.877Z,15.80
2022-07-29T21:36:46.837Z,15.73
2022-07-29T21:39:07.251Z,15.66
2022-07-29T21:41:36.334Z,15.56
2022-07-29T21:44:05.216Z,15.46
2022-07-29T21:46:34.004Z,15.40
2022-07-29T21:49:04.602Z,15.34
2022-07-29T21:51:33.336Z,15.27
2022-07-29T21:54:02.064Z,15.19
2022-07-29T21:56:31.977Z,15.11
2022-07-29T21:59:01.444Z,15.03
2022-07-29T22:01:39.453Z,14.97
2022-07-29T22:04:09.969Z,14.90
2022-07-29T22:06:38.732Z,14.82
2022-07-29T22:09:07.711Z,14.75
2022-07-29T22:11:36.924Z,14.69
2022-07-29T22:14:07.345Z,14.64
2022-07-29T22:16:36.174Z,14.56
2022-07-29T22:19:05.119Z,14.51
2022-07-29T22:21:35.163Z,14.46
2022-07-29T22:24:04.181Z,14.41
2022-07-29T22:26:33.261Z,14.36
2022-07-29T22:29:01.970Z,14.31
2022-07-29T22:31:30.784Z,14.29
2022-07-29T22:33:59.712Z,14.23
2022-07-29T22:36:28.531Z,14.20
2022-07-29T22:38:58.593Z,14.16
2022-07-29T22:41:27.503Z,14.12
2022-07-29T22:43:56.250Z,14.08
2022-07-29T22:46:24.951Z,14.05
2022-07-29T22:48:54.046Z,14.02
2022-07-29T22:51:22.961Z,13.99
2022-07-29T22:53:51.927Z,13.96
2022-07-29T22:56:22.255Z,13.94
2022-07-29T22:58:50.997Z,13.91
2022-07-29T23:01:37.933Z,13.88
2022-07-29T23:04:07.613Z,13.86
2022-07-29T23:06:36.409Z,13.86
2022-07-29T23:09:05.381Z,13.85
2022-07-29T23:11:35.621Z,13.85
2022-07-29T23:14:04.294Z,13.85
2022-07-29T23:16:33.032Z,13.82
2022-07-29T23:19:02.277Z,13.80
2022-07-29T23:21:30.949Z,13.79
2022-07-29T23:23:59.872Z,13.78
2022-07-29T23:26:28.784Z,13.75
2022-07-29T23:28:58.915Z,13.73
2022-07-29T23:31:27.850Z,13.71
2022-07-29T23:33:56.724Z,13.69
2022-07-29T23:36:25.410Z,13.69
2022-07-29T23:38:55.275Z,13.67
2022-07-29T23:41:24.962Z,13.65
2022-07-29T23:43:53.829Z,13.61
2022-07-29T23:46:24.202Z,13.60
2022-07-29T23:48:53.380Z,13.59
2022-07-29T23:51:22.408Z,13.57
2022-07-29T23:53:53.862Z,13.56
2022-07-29T23:56:24.000Z,13.53
2022-07-29T23:58:52.858Z,13.52
